sensor_id;sensor_type;location;lat;lon;timestamp;P1;durP1;ratioP1;P2;durP2;ratioP2
42904;SDS011;28550;51.228;4.528;2024-01-30T00:00:39;25.90;;;16.70;;
42904;SDS011;28550;51.228;4.528;2024-01-30T00:03:05;25.52;;;16.85;;
42904;SDS011;28550;51.228;4.528;2024-01-30T00:05:33;32.58;;;17.27;;
42904;SDS011;28550;51.228;4.528;2024-01-30T00:08:03;28.20;;;16.52;;
42904;SDS011;28550;51.228;4.528;2024-01-30T00:10:32;25.05;;;15.82;;
42904;SDS011;28550;51.228;4.528;2024-01-30T00:13:03;24.25;;;15.93;;
42904;SDS011;28550;51.228;4.528;2024-01-30T00:15:35;28.50;;;17.50;;
42904;SDS011;28550;51.228;4.528;2024-01-30T00:18:01;26.60;;;15.70;;
42904;SDS011;28550;51.228;4.528;2024-01-30T00:20:28;27.27;;;16.50;;
42904;SDS011;28550;51.228;4.528;2024-01-30T00:22:57;27.10;;;16.83;;
42904;SDS011;28550;51.228;4.528;2024-01-30T00:25:22;29.80;;;17.42;;
42904;SDS011;28550;51.228;4.528;2024-01-30T00:27:51;24.90;;;16.40;;
42904;SDS011;28550;51.228;4.528;2024-01-30T00:30:17;28.02;;;16.27;;
42904;SDS011;28550;51.228;4.528;2024-01-30T00:32:46;28.15;;;16.70;;
42904;SDS011;28550;51.228;4.528;2024-01-30T00:35:12;27.20;;;15.30;;
42904;SDS011;28550;51.228;4.528;2024-01-30T00:37:38;26.15;;;16.77;;
42904;SDS011;28550;51.228;4.528;2024-01-30T00:40:06;25.05;;;16.27;;
42904;SDS011;28550;51.228;4.528;2024-01-30T00:42:43;27.13;;;16.58;;
42904;SDS011;28550;51.228;4.528;2024-01-30T00:45:14;26.80;;;15.80;;
42904;SDS011;28550;51.228;4.528;2024-01-30T00:47:44;26.98;;;15.95;;
42904;SDS011;28550;51.228;4.528;2024-01-30T00:50:10;22.10;;;15.55;;
42904;SDS011;28550;51.228;4.528;2024-01-30T00:52:39;20.25;;;14.15;;
42904;SDS011;28550;51.228;4.528;2024-01-30T00:55:06;23.15;;;14.88;;
42904;SDS011;28550;51.228;4.528;2024-01-30T00:57:32;25.63;;;15.55;;
42904;SDS011;28550;51.228;4.528;2024-01-30T02:10:09;24.67;;;13.55;;
42904;SDS011;28550;51.228;4.528;2024-01-30T02:12:37;23.05;;;13.18;;
42904;SDS011;28550;51.228;4.528;2024-01-30T02:15:04;20.42;;;13.52;;
42904;SDS011;28550;51.228;4.528;2024-01-30T02:17:38;22.27;;;13.73;;
42904;SDS011;28550;51.228;4.528;2024-01-30T02:20:09;25.95;;;13.63;;
42904;SDS011;28550;51.228;4.528;2024-01-30T02:22:55;21.33;;;12.77;;
42904;SDS011;28550;51.228;4.528;2024-01-30T02:25:33;20.55;;;13.23;;
42904;SDS011;28550;51.228;4.528;2024-01-30T02:28:21;19.40;;;12.93;;
42904;SDS011;28550;51.228;4.528;2024-01-30T02:30:48;21.52;;;14.32;;
42904;SDS011;28550;51.228;4.528;2024-01-30T02:33:20;25.08;;;15.98;;
42904;SDS011;28550;51.228;4.528;2024-01-30T02:35:50;23.15;;;13.40;;
42904;SDS011;28550;51.228;4.528;2024-01-30T02:38:16;26.95;;;14.10;;
42904;SDS011;28550;51.228;4.528;2024-01-30T02:40:43;23.65;;;13.48;;
42904;SDS011;28550;51.228;4.528;2024-01-30T02:43:20;26.95;;;13.45;;
42904;SDS011;28550;51.228;4.528;2024-01-30T02:46:04;22.92;;;13.27;;
42904;SDS011;28550;51.228;4.528;2024-01-30T02:48:31;20.80;;;13.15;;
42904;SDS011;28550;51.228;4.528;2024-01-30T02:51:11;19.85;;;13.20;;
42904;SDS011;28550;51.228;4.528;2024-01-30T02:53:40;20.05;;;13.15;;
42904;SDS011;28550;51.228;4.528;2024-01-30T02:56:09;23.20;;;14.18;;
42904;SDS011;28550;51.228;4.528;2024-01-30T02:58:39;22.40;;;13.68;;
42904;SDS011;28550;51.228;4.528;2024-01-30T03:01:14;21.75;;;13.40;;
42904;SDS011;28550;51.228;4.528;2024-01-30T03:03:40;17.98;;;12.82;;
42904;SDS011;28550;51.228;4.528;2024-01-30T03:06:08;22.90;;;13.25;;
42904;SDS011;28550;51.228;4.528;2024-01-30T03:08:34;23.38;;;13.00;;
42904;SDS011;28550;51.228;4.528;2024-01-30T03:11:11;21.05;;;12.05;;
42904;SDS011;28550;51.228;4.528;2024-01-30T03:13:39;27.42;;;13.80;;
42904;SDS011;28550;51.228;4.528;2024-01-30T03:16:08;20.95;;;12.93;;
42904;SDS011;28550;51.228;4.528;2024-01-30T03:18:33;20.30;;;13.27;;
42904;SDS011;28550;51.228;4.528;2024-01-30T03:20:59;20.33;;;12.35;;
42904;SDS011;28550;51.228;4.528;2024-01-30T03:23:26;26.65;;;14.93;;
42904;SDS011;28550;51.228;4.528;2024-01-30T03:25:53;23.27;;;13.75;;
42904;SDS011;28550;51.228;4.528;2024-01-30T03:28:20;22.25;;;13.13;;
42904;SDS011;28550;51.228;4.528;2024-01-30T03:30:46;22.20;;;13.65;;
42904;SDS011;28550;51.228;4.528;2024-01-30T03:33:12;22.10;;;14.57;;
42904;SDS011;28550;51.228;4.528;2024-01-30T03:35:38;22.92;;;13.27;;
42904;SDS011;28550;51.228;4.528;2024-01-30T03:38:05;21.42;;;13.55;;
42904;SDS011;28550;51.228;4.528;2024-01-30T03:40:30;24.88;;;14.07;;
42904;SDS011;28550;51.228;4.528;2024-01-30T03:42:56;23.48;;;13.10;;
42904;SDS011;28550;51.228;4.528;2024-01-30T03:45:22;21.65;;;12.48;;
42904;SDS011;28550;51.228;4.528;2024-01-30T03:47:48;23.02;;;12.77;;
42904;SDS011;28550;51.228;4.528;2024-01-30T03:50:15;23.00;;;12.95;;
42904;SDS011;28550;51.228;4.528;2024-01-30T03:52:42;22.08;;;12.52;;
42904;SDS011;28550;51.228;4.528;2024-01-30T03:55:08;20.33;;;13.40;;
42904;SDS011;28550;51.228;4.528;2024-01-30T03:57:34;22.90;;;12.98;;
42904;SDS011;28550;51.228;4.528;2024-01-30T04:00:01;28.08;;;15.18;;
42904;SDS011;28550;51.228;4.528;2024-01-30T04:02:30;23.52;;;13.63;;
42904;SDS011;28550;51.228;4.528;2024-01-30T04:04:57;19.67;;;12.50;;
42904;SDS011;28550;51.228;4.528;2024-01-30T04:07:23;25.73;;;13.23;;
42904;SDS011;28550;51.228;4.528;2024-01-30T04:09:50;23.02;;;13.02;;
42904;SDS011;28550;51.228;4.528;2024-01-30T04:12:15;21.77;;;12.60;;
42904;SDS011;28550;51.228;4.528;2024-01-30T04:14:46;24.02;;;13.85;;
42904;SDS011;28550;51.228;4.528;2024-01-30T04:17:12;26.30;;;13.85;;
42904;SDS011;28550;51.228;4.528;2024-01-30T04:19:40;22.08;;;12.65;;
42904;SDS011;28550;51.228;4.528;2024-01-30T04:22:06;20.13;;;12.93;;
42904;SDS011;28550;51.228;4.528;2024-01-30T04:24:33;25.85;;;13.70;;
42904;SDS011;28550;51.228;4.528;2024-01-30T04:27:01;20.27;;;12.20;;
42904;SDS011;28550;51.228;4.528;2024-01-30T04:29:29;19.33;;;13.02;;
42904;SDS011;28550;51.228;4.528;2024-01-30T04:31:55;20.65;;;12.20;;
42904;SDS011;28550;51.228;4.528;2024-01-30T04:34:22;22.40;;;13.15;;
42904;SDS011;28550;51.228;4.528;2024-01-30T04:36:50;21.05;;;12.65;;
42904;SDS011;28550;51.228;4.528;2024-01-30T04:39:18;21.38;;;12.55;;
42904;SDS011;28550;51.228;4.528;2024-01-30T04:41:43;21.30;;;12.48;;
42904;SDS011;28550;51.228;4.528;2024-01-30T04:44:15;22.73;;;11.85;;
42904;SDS011;28550;51.228;4.528;2024-01-30T04:46:57;25.83;;;12.80;;
42904;SDS011;28550;51.228;4.528;2024-01-30T04:49:30;22.80;;;13.55;;
42904;SDS011;28550;51.228;4.528;2024-01-30T04:51:56;28.05;;;12.57;;
42904;SDS011;28550;51.228;4.528;2024-01-30T04:54:34;24.48;;;13.15;;
42904;SDS011;28550;51.228;4.528;2024-01-30T04:57:04;19.60;;;12.75;;
42904;SDS011;28550;51.228;4.528;2024-01-30T04:59:36;21.20;;;11.93;;
42904;SDS011;28550;51.228;4.528;2024-01-30T05:02:04;21.08;;;11.93;;
42904;SDS011;28550;51.228;4.528;2024-01-30T05:04:44;22.60;;;11.73;;
42904;SDS011;28550;51.228;4.528;2024-01-30T05:07:14;21.85;;;11.68;;
42904;SDS011;28550;51.228;4.528;2024-01-30T05:09:45;24.38;;;12.45;;
42904;SDS011;28550;51.228;4.528;2024-01-30T05:12:14;20.13;;;10.77;;
42904;SDS011;28550;51.228;4.528;2024-01-30T05:14:41;19.90;;;11.63;;
42904;SDS011;28550;51.228;4.528;2024-01-30T05:17:07;15.30;;;10.43;;
42904;SDS011;28550;51.228;4.528;2024-01-30T05:19:38;18.77;;;10.63;;
42904;SDS011;28550;51.228;4.528;2024-01-30T05:22:07;19.48;;;10.93;;
42904;SDS011;28550;51.228;4.528;2024-01-30T05:24:33;16.00;;;9.50;;
42904;SDS011;28550;51.228;4.528;2024-01-30T05:27:00;15.98;;;10.02;;
42904;SDS011;28550;51.228;4.528;2024-01-30T05:29:29;19.90;;;10.20;;
42904;SDS011;28550;51.228;4.528;2024-01-30T05:31:55;18.90;;;9.70;;
42904;SDS011;28550;51.228;4.528;2024-01-30T05:34:22;17.17;;;10.00;;
42904;SDS011;28550;51.228;4.528;2024-01-30T05:36:47;15.07;;;9.85;;
42904;SDS011;28550;51.228;4.528;2024-01-30T05:39:16;17.95;;;9.75;;
42904;SDS011;28550;51.228;4.528;2024-01-30T05:41:47;17.67;;;9.80;;
42904;SDS011;28550;51.228;4.528;2024-01-30T05:44:18;15.93;;;9.00;;
42904;SDS011;28550;51.228;4.528;2024-01-30T05:46:44;18.55;;;9.75;;
42904;SDS011;28550;51.228;4.528;2024-01-30T05:49:13;17.13;;;10.48;;
42904;SDS011;28550;51.228;4.528;2024-01-30T05:51:38;18.83;;;9.65;;
42904;SDS011;28550;51.228;4.528;2024-01-30T05:54:04;18.45;;;9.90;;
42904;SDS011;28550;51.228;4.528;2024-01-30T05:56:30;18.65;;;9.30;;
42904;SDS011;28550;51.228;4.528;2024-01-30T05:58:55;22.40;;;10.98;;
42904;SDS011;28550;51.228;4.528;2024-01-30T06:01:23;20.77;;;10.20;;
42904;SDS011;28550;51.228;4.528;2024-01-30T06:03:58;17.33;;;9.73;;
42904;SDS011;28550;51.228;4.528;2024-01-30T06:06:52;19.35;;;9.40;;
42904;SDS011;28550;51.228;4.528;2024-01-30T06:09:23;17.23;;;10.00;;
42904;SDS011;28550;51.228;4.528;2024-01-30T06:11:50;16.33;;;10.63;;
42904;SDS011;28550;51.228;4.528;2024-01-30T06:16:46;18.73;;;9.45;;
42904;SDS011;28550;51.228;4.528;2024-01-30T06:19:16;17.67;;;9.75;;
42904;SDS011;28550;51.228;4.528;2024-01-30T06:21:42;15.65;;;9.43;;
42904;SDS011;28550;51.228;4.528;2024-01-30T06:24:10;16.48;;;8.88;;
42904;SDS011;28550;51.228;4.528;2024-01-30T06:26:39;18.52;;;10.23;;
42904;SDS011;28550;51.228;4.528;2024-01-30T06:29:07;14.43;;;9.45;;
42904;SDS011;28550;51.228;4.528;2024-01-30T06:31:40;21.98;;;9.60;;
42904;SDS011;28550;51.228;4.528;2024-01-30T06:34:08;17.75;;;10.43;;
42904;SDS011;28550;51.228;4.528;2024-01-30T06:36:36;21.88;;;10.13;;
42904;SDS011;28550;51.228;4.528;2024-01-30T06:39:05;23.38;;;10.73;;
42904;SDS011;28550;51.228;4.528;2024-01-30T06:41:32;15.50;;;10.45;;
42904;SDS011;28550;51.228;4.528;2024-01-30T06:44:02;19.33;;;10.50;;
42904;SDS011;28550;51.228;4.528;2024-01-30T06:46:58;17.92;;;9.77;;
42904;SDS011;28550;51.228;4.528;2024-01-30T06:49:24;19.48;;;10.18;;
42904;SDS011;28550;51.228;4.528;2024-01-30T06:52:04;16.80;;;9.30;;
42904;SDS011;28550;51.228;4.528;2024-01-30T07:01:21;20.10;;;10.75;;
42904;SDS011;28550;51.228;4.528;2024-01-30T07:04:03;23.23;;;10.15;;
42904;SDS011;28550;51.228;4.528;2024-01-30T07:06:43;21.95;;;11.07;;
42904;SDS011;28550;51.228;4.528;2024-01-30T07:09:12;18.33;;;10.93;;
42904;SDS011;28550;51.228;4.528;2024-01-30T07:11:38;17.48;;;9.05;;
42904;SDS011;28550;51.228;4.528;2024-01-30T07:17:31;20.42;;;9.57;;
42904;SDS011;28550;51.228;4.528;2024-01-30T07:20:01;18.77;;;10.30;;
42904;SDS011;28550;51.228;4.528;2024-01-30T07:54:08;18.33;;;10.02;;
42904;SDS011;28550;51.228;4.528;2024-01-30T07:56:34;18.15;;;9.35;;
42904;SDS011;28550;51.228;4.528;2024-01-30T07:59:15;15.20;;;9.57;;
42904;SDS011;28550;51.228;4.528;2024-01-30T09:11:25;14.88;;;9.45;;
42904;SDS011;28550;51.228;4.528;2024-01-30T09:14:11;15.40;;;9.55;;
42904;SDS011;28550;51.228;4.528;2024-01-30T09:16:37;21.60;;;10.25;;
42904;SDS011;28550;51.228;4.528;2024-01-30T09:19:23;17.33;;;10.00;;
42904;SDS011;28550;51.228;4.528;2024-01-30T09:28:57;18.48;;;10.70;;
42904;SDS011;28550;51.228;4.528;2024-01-30T09:32:10;22.73;;;11.40;;
42904;SDS011;28550;51.228;4.528;2024-01-30T10:03:34;25.92;;;12.32;;
42904;SDS011;28550;51.228;4.528;2024-01-30T10:06:31;16.70;;;11.60;;
42904;SDS011;28550;51.228;4.528;2024-01-30T10:09:36;19.35;;;12.00;;
42904;SDS011;28550;51.228;4.528;2024-01-30T10:12:46;20.83;;;12.65;;
42904;SDS011;28550;51.228;4.528;2024-01-30T10:15:21;21.20;;;12.35;;
42904;SDS011;28550;51.228;4.528;2024-01-30T10:17:50;21.35;;;13.45;;
42904;SDS011;28550;51.228;4.528;2024-01-30T10:20:38;23.33;;;12.50;;
42904;SDS011;28550;51.228;4.528;2024-01-30T10:23:05;21.08;;;13.85;;
42904;SDS011;28550;51.228;4.528;2024-01-30T10:25:33;24.60;;;13.45;;
42904;SDS011;28550;51.228;4.528;2024-01-30T10:28:01;20.48;;;12.00;;
42904;SDS011;28550;51.228;4.528;2024-01-30T10:30:47;22.75;;;11.77;;
42904;SDS011;28550;51.228;4.528;2024-01-30T10:40:07;16.13;;;9.20;;
42904;SDS011;28550;51.228;4.528;2024-01-30T10:42:44;14.00;;;8.23;;
42904;SDS011;28550;51.228;4.528;2024-01-30T10:45:14;10.38;;;6.43;;
42904;SDS011;28550;51.228;4.528;2024-01-30T10:47:48;9.02;;;6.03;;
42904;SDS011;28550;51.228;4.528;2024-01-30T10:50:16;10.50;;;5.85;;
42904;SDS011;28550;51.228;4.528;2024-01-30T10:52:42;12.52;;;6.07;;
42904;SDS011;28550;51.228;4.528;2024-01-30T10:55:08;5.88;;;3.33;;
42904;SDS011;28550;51.228;4.528;2024-01-30T10:57:45;7.53;;;3.90;;
42904;SDS011;28550;51.228;4.528;2024-01-30T11:00:11;5.72;;;3.15;;
42904;SDS011;28550;51.228;4.528;2024-01-30T11:02:44;4.78;;;3.00;;
42904;SDS011;28550;51.228;4.528;2024-01-30T11:05:14;10.07;;;2.72;;
42904;SDS011;28550;51.228;4.528;2024-01-30T11:07:48;4.07;;;2.53;;
42904;SDS011;28550;51.228;4.528;2024-01-30T11:10:14;3.15;;;1.90;;
42904;SDS011;28550;51.228;4.528;2024-01-30T11:12:40;5.47;;;1.77;;
42904;SDS011;28550;51.228;4.528;2024-01-30T11:15:08;4.85;;;1.90;;
42904;SDS011;28550;51.228;4.528;2024-01-30T11:17:45;3.30;;;1.73;;
42904;SDS011;28550;51.228;4.528;2024-01-30T11:20:29;4.93;;;2.17;;
42904;SDS011;28550;51.228;4.528;2024-01-30T11:23:02;4.43;;;2.42;;
42904;SDS011;28550;51.228;4.528;2024-01-30T11:25:31;5.00;;;2.25;;
42904;SDS011;28550;51.228;4.528;2024-01-30T11:27:57;3.75;;;2.13;;
42904;SDS011;28550;51.228;4.528;2024-01-30T11:30:30;3.83;;;2.28;;
42904;SDS011;28550;51.228;4.528;2024-01-30T11:33:04;3.92;;;1.77;;
42904;SDS011;28550;51.228;4.528;2024-01-30T11:35:32;6.05;;;1.98;;
42904;SDS011;28550;51.228;4.528;2024-01-30T11:38:08;1.88;;;1.33;;
42904;SDS011;28550;51.228;4.528;2024-01-30T11:40:36;2.55;;;1.20;;
42904;SDS011;28550;51.228;4.528;2024-01-30T11:43:03;2.90;;;1.30;;
42904;SDS011;28550;51.228;4.528;2024-01-30T11:45:31;1.25;;;0.93;;
42904;SDS011;28550;51.228;4.528;2024-01-30T11:47:57;3.78;;;1.05;;
42904;SDS011;28550;51.228;4.528;2024-01-30T11:50:25;2.28;;;1.00;;
42904;SDS011;28550;51.228;4.528;2024-01-30T11:52:51;4.32;;;1.10;;
42904;SDS011;28550;51.228;4.528;2024-01-30T11:55:17;3.05;;;1.00;;
42904;SDS011;28550;51.228;4.528;2024-01-30T11:57:46;6.07;;;1.10;;
42904;SDS011;28550;51.228;4.528;2024-01-30T12:00:17;3.10;;;1.42;;
42904;SDS011;28550;51.228;4.528;2024-01-30T12:02:44;4.55;;;1.42;;
42904;SDS011;28550;51.228;4.528;2024-01-30T12:05:15;5.22;;;1.17;;
42904;SDS011;28550;51.228;4.528;2024-01-30T12:07:44;1.88;;;1.33;;
42904;SDS011;28550;51.228;4.528;2024-01-30T12:10:13;3.35;;;1.10;;
42904;SDS011;28550;51.228;4.528;2024-01-30T12:12:39;8.02;;;2.42;;
42904;SDS011;28550;51.228;4.528;2024-01-30T12:15:13;3.13;;;1.13;;
42904;SDS011;28550;51.228;4.528;2024-01-30T12:17:39;3.33;;;1.23;;
42904;SDS011;28550;51.228;4.528;2024-01-30T12:20:09;5.05;;;1.85;;
42904;SDS011;28550;51.228;4.528;2024-01-30T12:22:38;1.85;;;1.17;;
42904;SDS011;28550;51.228;4.528;2024-01-30T12:25:12;3.13;;;1.30;;
42904;SDS011;28550;51.228;4.528;2024-01-30T12:27:49;4.53;;;1.30;;
42904;SDS011;28550;51.228;4.528;2024-01-30T12:33:01;4.38;;;1.42;;
42904;SDS011;28550;51.228;4.528;2024-01-30T12:35:29;4.43;;;1.30;;
42904;SDS011;28550;51.228;4.528;2024-01-30T12:37:55;2.05;;;1.10;;
42904;SDS011;28550;51.228;4.528;2024-01-30T12:40:21;5.43;;;1.30;;
42904;SDS011;28550;51.228;4.528;2024-01-30T12:42:46;5.22;;;1.33;;
42904;SDS011;28550;51.228;4.528;2024-01-30T12:45:15;1.98;;;1.52;;
42904;SDS011;28550;51.228;4.528;2024-01-30T12:47:43;2.33;;;1.50;;
42904;SDS011;28550;51.228;4.528;2024-01-30T12:50:08;5.32;;;1.35;;
42904;SDS011;28550;51.228;4.528;2024-01-30T12:52:35;6.18;;;1.63;;
42904;SDS011;28550;51.228;4.528;2024-01-30T12:55:01;2.78;;;1.60;;
42904;SDS011;28550;51.228;4.528;2024-01-30T13:00:04;4.72;;;1.48;;
42904;SDS011;28550;51.228;4.528;2024-01-30T13:02:33;4.72;;;1.85;;
42904;SDS011;28550;51.228;4.528;2024-01-30T13:05:04;3.05;;;1.40;;
42904;SDS011;28550;51.228;4.528;2024-01-30T13:07:31;2.20;;;2.00;;
42904;SDS011;28550;51.228;4.528;2024-01-30T13:09:57;2.63;;;1.85;;
42904;SDS011;28550;51.228;4.528;2024-01-30T13:12:29;4.85;;;2.03;;
42904;SDS011;28550;51.228;4.528;2024-01-30T13:14:55;5.40;;;1.67;;
42904;SDS011;28550;51.228;4.528;2024-01-30T13:17:25;5.60;;;2.55;;
42904;SDS011;28550;51.228;4.528;2024-01-30T13:19:51;2.42;;;1.80;;
42904;SDS011;28550;51.228;4.528;2024-01-30T13:22:19;3.92;;;2.22;;
42904;SDS011;28550;51.228;4.528;2024-01-30T13:24:46;6.57;;;2.20;;
42904;SDS011;28550;51.228;4.528;2024-01-30T13:27:16;3.55;;;2.35;;
42904;SDS011;28550;51.228;4.528;2024-01-30T13:29:42;3.80;;;2.00;;
42904;SDS011;28550;51.228;4.528;2024-01-30T13:32:08;8.60;;;2.58;;
42904;SDS011;28550;51.228;4.528;2024-01-30T13:34:52;7.47;;;2.38;;
42904;SDS011;28550;51.228;4.528;2024-01-30T13:37:19;5.20;;;2.45;;
42904;SDS011;28550;51.228;4.528;2024-01-30T13:39:45;4.45;;;2.03;;
42904;SDS011;28550;51.228;4.528;2024-01-30T13:42:11;7.13;;;2.58;;
42904;SDS011;28550;51.228;4.528;2024-01-30T13:44:36;4.18;;;2.13;;
42904;SDS011;28550;51.228;4.528;2024-01-30T13:47:02;3.53;;;2.22;;
42904;SDS011;28550;51.228;4.528;2024-01-30T13:52:23;9.93;;;2.15;;
42904;SDS011;28550;51.228;4.528;2024-01-30T13:54:49;4.25;;;2.35;;
42904;SDS011;28550;51.228;4.528;2024-01-30T13:57:14;5.95;;;2.42;;
42904;SDS011;28550;51.228;4.528;2024-01-30T13:59:40;7.88;;;2.20;;
42904;SDS011;28550;51.228;4.528;2024-01-30T14:02:06;3.70;;;1.95;;
42904;SDS011;28550;51.228;4.528;2024-01-30T14:04:33;9.57;;;2.53;;
42904;SDS011;28550;51.228;4.528;2024-01-30T14:07:01;5.22;;;2.22;;
42904;SDS011;28550;51.228;4.528;2024-01-30T14:09:31;6.07;;;2.92;;
42904;SDS011;28550;51.228;4.528;2024-01-30T14:11:58;10.55;;;4.30;;
42904;SDS011;28550;51.228;4.528;2024-01-30T14:14:24;8.48;;;3.50;;
42904;SDS011;28550;51.228;4.528;2024-01-30T14:16:50;6.20;;;2.17;;
42904;SDS011;28550;51.228;4.528;2024-01-30T14:19:15;5.07;;;2.53;;
42904;SDS011;28550;51.228;4.528;2024-01-30T14:21:44;3.22;;;2.30;;
42904;SDS011;28550;51.228;4.528;2024-01-30T14:24:10;6.70;;;2.20;;
42904;SDS011;28550;51.228;4.528;2024-01-30T14:26:36;5.05;;;2.22;;
42904;SDS011;28550;51.228;4.528;2024-01-30T14:29:02;8.13;;;2.38;;
42904;SDS011;28550;51.228;4.528;2024-01-30T14:31:27;9.63;;;2.67;;
42904;SDS011;28550;51.228;4.528;2024-01-30T14:33:55;3.55;;;2.08;;
42904;SDS011;28550;51.228;4.528;2024-01-30T14:36:21;7.35;;;2.60;;
42904;SDS011;28550;51.228;4.528;2024-01-30T14:38:50;4.68;;;2.50;;
42904;SDS011;28550;51.228;4.528;2024-01-30T14:41:16;5.00;;;2.30;;
42904;SDS011;28550;51.228;4.528;2024-01-30T14:43:42;3.92;;;2.00;;
42904;SDS011;28550;51.228;4.528;2024-01-30T14:46:08;4.65;;;2.03;;
42904;SDS011;28550;51.228;4.528;2024-01-30T14:48:34;5.03;;;2.05;;
42904;SDS011;28550;51.228;4.528;2024-01-30T14:50:59;2.63;;;1.90;;
42904;SDS011;28550;51.228;4.528;2024-01-30T14:53:25;4.63;;;2.08;;
42904;SDS011;28550;51.228;4.528;2024-01-30T14:55:51;8.25;;;2.50;;
42904;SDS011;28550;51.228;4.528;2024-01-30T14:58:16;4.22;;;1.98;;
42904;SDS011;28550;51.228;4.528;2024-01-30T15:00:42;3.25;;;1.83;;
42904;SDS011;28550;51.228;4.528;2024-01-30T15:03:17;6.30;;;2.17;;
42904;SDS011;28550;51.228;4.528;2024-01-30T15:05:48;10.30;;;2.65;;
42904;SDS011;28550;51.228;4.528;2024-01-30T15:08:14;7.07;;;3.75;;
42904;SDS011;28550;51.228;4.528;2024-01-30T15:10:39;8.02;;;2.95;;
42904;SDS011;28550;51.228;4.528;2024-01-30T15:13:05;13.82;;;4.47;;
42904;SDS011;28550;51.228;4.528;2024-01-30T15:15:31;7.32;;;3.53;;
42904;SDS011;28550;51.228;4.528;2024-01-30T15:18:00;7.13;;;4.05;;
42904;SDS011;28550;51.228;4.528;2024-01-30T15:20:34;12.98;;;4.53;;
42904;SDS011;28550;51.228;4.528;2024-01-30T15:23:00;6.80;;;4.60;;
42904;SDS011;28550;51.228;4.528;2024-01-30T15:25:33;9.13;;;4.53;;
42904;SDS011;28550;51.228;4.528;2024-01-30T15:28:04;9.35;;;4.97;;
42904;SDS011;28550;51.228;4.528;2024-01-30T15:30:40;10.95;;;4.97;;
42904;SDS011;28550;51.228;4.528;2024-01-30T15:33:09;9.02;;;5.43;;
42904;SDS011;28550;51.228;4.528;2024-01-30T15:35:35;9.07;;;5.10;;
42904;SDS011;28550;51.228;4.528;2024-01-30T15:38:03;11.35;;;7.68;;
42904;SDS011;28550;51.228;4.528;2024-01-30T15:40:29;10.38;;;7.70;;
42904;SDS011;28550;51.228;4.528;2024-01-30T15:42:58;10.85;;;7.95;;
42904;SDS011;28550;51.228;4.528;2024-01-30T15:45:27;13.30;;;7.65;;
42904;SDS011;28550;51.228;4.528;2024-01-30T15:47:53;13.73;;;8.88;;
42904;SDS011;28550;51.228;4.528;2024-01-30T15:50:19;16.55;;;8.77;;
42904;SDS011;28550;51.228;4.528;2024-01-30T15:52:44;11.75;;;8.68;;
42904;SDS011;28550;51.228;4.528;2024-01-30T15:55:10;15.32;;;7.88;;
42904;SDS011;28550;51.228;4.528;2024-01-30T15:57:37;19.10;;;8.10;;
42904;SDS011;28550;51.228;4.528;2024-01-30T16:00:03;10.13;;;8.02;;
42904;SDS011;28550;51.228;4.528;2024-01-30T16:02:30;12.55;;;8.45;;
42904;SDS011;28550;51.228;4.528;2024-01-30T16:04:55;12.55;;;8.35;;
42904;SDS011;28550;51.228;4.528;2024-01-30T16:07:21;19.25;;;9.70;;
42904;SDS011;28550;51.228;4.528;2024-01-30T16:09:47;14.70;;;9.15;;
42904;SDS011;28550;51.228;4.528;2024-01-30T16:12:13;15.00;;;8.88;;
42904;SDS011;28550;51.228;4.528;2024-01-30T16:14:39;18.75;;;9.43;;
42904;SDS011;28550;51.228;4.528;2024-01-30T16:17:06;19.58;;;9.95;;
42904;SDS011;28550;51.228;4.528;2024-01-30T16:19:32;14.93;;;8.70;;
42904;SDS011;28550;51.228;4.528;2024-01-30T16:21:58;14.00;;;9.05;;
42904;SDS011;28550;51.228;4.528;2024-01-30T16:24:24;13.18;;;7.88;;
42904;SDS011;28550;51.228;4.528;2024-01-30T16:26:51;18.73;;;9.23;;
42904;SDS011;28550;51.228;4.528;2024-01-30T16:29:17;15.93;;;9.05;;
42904;SDS011;28550;51.228;4.528;2024-01-30T16:31:44;18.63;;;10.00;;
42904;SDS011;28550;51.228;4.528;2024-01-30T16:34:11;17.27;;;9.98;;
42904;SDS011;28550;51.228;4.528;2024-01-30T16:39:08;17.63;;;9.20;;
42904;SDS011;28550;51.228;4.528;2024-01-30T16:41:34;19.58;;;10.10;;
42904;SDS011;28550;51.228;4.528;2024-01-30T16:44:02;21.38;;;12.00;;
42904;SDS011;28550;51.228;4.528;2024-01-30T16:46:28;21.63;;;11.70;;
42904;SDS011;28550;51.228;4.528;2024-01-30T16:48:54;30.92;;;13.85;;
42904;SDS011;28550;51.228;4.528;2024-01-30T16:51:20;21.35;;;11.45;;
42904;SDS011;28550;51.228;4.528;2024-01-30T16:53:47;23.92;;;12.90;;
42904;SDS011;28550;51.228;4.528;2024-01-30T16:56:13;22.45;;;11.50;;
42904;SDS011;28550;51.228;4.528;2024-01-30T16:58:39;20.13;;;11.07;;
42904;SDS011;28550;51.228;4.528;2024-01-30T17:01:05;18.60;;;11.13;;
42904;SDS011;28550;51.228;4.528;2024-01-30T17:03:31;19.40;;;10.88;;
42904;SDS011;28550;51.228;4.528;2024-01-30T17:05:57;26.95;;;12.35;;
42904;SDS011;28550;51.228;4.528;2024-01-30T17:08:29;19.35;;;10.77;;
42904;SDS011;28550;51.228;4.528;2024-01-30T17:10:58;23.98;;;11.68;;
42904;SDS011;28550;51.228;4.528;2024-01-30T17:13:28;23.80;;;12.70;;
42904;SDS011;28550;51.228;4.528;2024-01-30T17:15:54;21.55;;;11.13;;
42904;SDS011;28550;51.228;4.528;2024-01-30T17:18:19;20.45;;;11.63;;
42904;SDS011;28550;51.228;4.528;2024-01-30T17:20:45;18.77;;;11.75;;
42904;SDS011;28550;51.228;4.528;2024-01-30T17:23:11;21.92;;;10.98;;
42904;SDS011;28550;51.228;4.528;2024-01-30T17:25:37;19.10;;;11.07;;
42904;SDS011;28550;51.228;4.528;2024-01-30T17:28:04;17.63;;;11.10;;
42904;SDS011;28550;51.228;4.528;2024-01-30T17:30:30;24.48;;;12.38;;
42904;SDS011;28550;51.228;4.528;2024-01-30T17:32:55;18.25;;;11.00;;
42904;SDS011;28550;51.228;4.528;2024-01-30T17:35:23;22.33;;;12.00;;
42904;SDS011;28550;51.228;4.528;2024-01-30T17:37:54;19.88;;;11.50;;
42904;SDS011;28550;51.228;4.528;2024-01-30T17:40:22;20.90;;;12.18;;
42904;SDS011;28550;51.228;4.528;2024-01-30T17:42:51;22.73;;;13.35;;
42904;SDS011;28550;51.228;4.528;2024-01-30T17:45:17;19.92;;;10.73;;
42904;SDS011;28550;51.228;4.528;2024-01-30T17:47:42;22.10;;;11.80;;
42904;SDS011;28550;51.228;4.528;2024-01-30T17:50:08;21.80;;;13.15;;
42904;SDS011;28550;51.228;4.528;2024-01-30T17:52:34;23.95;;;12.63;;
42904;SDS011;28550;51.228;4.528;2024-01-30T17:55:00;30.08;;;13.50;;
42904;SDS011;28550;51.228;4.528;2024-01-30T17:57:26;30.70;;;14.38;;
42904;SDS011;28550;51.228;4.528;2024-01-30T17:59:51;22.08;;;13.63;;
42904;SDS011;28550;51.228;4.528;2024-01-30T18:02:17;30.75;;;14.88;;
42904;SDS011;28550;51.228;4.528;2024-01-30T18:04:43;28.25;;;14.00;;
42904;SDS011;28550;51.228;4.528;2024-01-30T18:07:09;22.05;;;13.73;;
42904;SDS011;28550;51.228;4.528;2024-01-30T18:09:35;24.65;;;14.93;;
42904;SDS011;28550;51.228;4.528;2024-01-30T18:12:00;25.73;;;13.88;;
42904;SDS011;28550;51.228;4.528;2024-01-30T18:14:27;26.65;;;14.23;;
42904;SDS011;28550;51.228;4.528;2024-01-30T18:16:53;20.77;;;13.10;;
42904;SDS011;28550;51.228;4.528;2024-01-30T18:19:18;28.10;;;15.13;;
42904;SDS011;28550;51.228;4.528;2024-01-30T18:21:45;28.40;;;14.50;;
42904;SDS011;28550;51.228;4.528;2024-01-30T18:24:11;31.02;;;15.90;;
42904;SDS011;28550;51.228;4.528;2024-01-30T18:26:36;31.40;;;14.85;;
42904;SDS011;28550;51.228;4.528;2024-01-30T18:29:03;27.08;;;14.77;;
42904;SDS011;28550;51.228;4.528;2024-01-30T18:31:29;28.13;;;15.27;;
42904;SDS011;28550;51.228;4.528;2024-01-30T18:33:55;30.95;;;15.05;;
42904;SDS011;28550;51.228;4.528;2024-01-30T18:36:21;26.83;;;15.23;;
42904;SDS011;28550;51.228;4.528;2024-01-30T18:38:48;28.05;;;15.90;;